Glasgow, Montana
Current Conditions -  °F | °C
As of 12:53 AM on Saturday 25 Oct 2014 (Local Time) from KGGW Reporting Station
Clear Clear  
Wind Chill: 44°   Ceiling: Unl
Heat Index: 44°   Visibility: 10mi
Dew Point: 29°   Wind: 0mph
Humidity: 55%   Direction: NA
Pressure: 30.09"   Gusts: NA
Location:  48.2°N, 106.64°W
Report Text: KGGW 250653Z AUTO 00000KT 10SM CLR 07/M02 A3009 RMK AO2 SLP196 T00671017 401560033
Loading
Personal Weather Stations






























Interactive Weather Map
Tropical Storm Tracking
New forecast layout! Learn more

10-Day Weather Forecast

Advertisements
Track Severe Weather on mobile